sensor_id;sensor_type;location;lat;lon;timestamp;temperature;humidity
67279;DHT22;54193;53.746;10.058;2023-03-03T00:00:19;-0.18;96.03
67279;DHT22;54193;53.746;10.058;2023-03-03T00:03:06;-0.23;96.03
67279;DHT22;54193;53.746;10.058;2023-03-03T00:05:53;-0.24;95.98
67279;DHT22;54193;53.746;10.058;2023-03-03T00:08:38;-0.24;96.00
67279;DHT22;54193;53.746;10.058;2023-03-03T00:11:24;-0.23;95.92
67279;DHT22;54193;53.746;10.058;2023-03-03T00:14:20;-0.24;95.92
67279;DHT22;54193;53.746;10.058;2023-03-03T00:17:18;-0.27;95.91
67279;DHT22;54193;53.746;10.058;2023-03-03T00:20:27;-0.27;95.89
67279;DHT22;54193;53.746;10.058;2023-03-03T00:23:36;-0.37;95.87
67279;DHT22;54193;53.746;10.058;2023-03-03T00:26:30;-0.31;95.95
67279;DHT22;54193;53.746;10.058;2023-03-03T00:29:35;-0.27;96.00
67279;DHT22;54193;53.746;10.058;2023-03-03T00:32:26;-0.26;96.01
67279;DHT22;54193;53.746;10.058;2023-03-03T00:38:16;-0.37;95.89
67279;DHT22;54193;53.746;10.058;2023-03-03T00:41:13;-0.38;95.96
67279;DHT22;54193;53.746;10.058;2023-03-03T00:45:04;-0.37;95.95
67279;DHT22;54193;53.746;10.058;2023-03-03T00:55:48;-0.37;95.97
67279;DHT22;54193;53.746;10.058;2023-03-03T00:58:35;-0.42;95.89
67279;DHT22;54193;53.746;10.058;2023-03-03T01:01:21;-0.47;95.91
67279;DHT22;54193;53.746;10.058;2023-03-03T01:04:07;-0.42;95.91
67279;DHT22;54193;53.746;10.058;2023-03-03T01:06:52;-0.40;95.94
67279;DHT22;54193;53.746;10.058;2023-03-03T01:09:38;-0.41;95.97
67279;DHT22;54193;53.746;10.058;2023-03-03T01:12:24;-0.41;95.98
67279;DHT22;54193;53.746;10.058;2023-03-03T01:15:10;-0.50;95.97
67279;DHT22;54193;53.746;10.058;2023-03-03T01:17:57;-0.45;95.92
67279;DHT22;54193;53.746;10.058;2023-03-03T01:20:42;-0.51;95.90
67279;DHT22;54193;53.746;10.058;2023-03-03T01:23:28;-0.50;95.97
67279;DHT22;54193;53.746;10.058;2023-03-03T01:26:14;-0.45;95.96
67279;DHT22;54193;53.746;10.058;2023-03-03T01:29:00;-0.47;95.99
67279;DHT22;54193;53.746;10.058;2023-03-03T01:31:45;-0.51;95.90
67279;DHT22;54193;53.746;10.058;2023-03-03T01:34:31;-0.61;95.86
67279;DHT22;54193;53.746;10.058;2023-03-03T01:37:16;-0.61;95.94
67279;DHT22;54193;53.746;10.058;2023-03-03T01:40:04;-0.60;95.95
67279;DHT22;54193;53.746;10.058;2023-03-03T01:42:51;-0.60;95.95
67279;DHT22;54193;53.746;10.058;2023-03-03T01:48:33;-0.62;95.99
67279;DHT22;54193;53.746;10.058;2023-03-03T01:51:28;-0.78;95.97
67279;DHT22;54193;53.746;10.058;2023-03-03T01:54:20;-0.66;96.03
67279;DHT22;54193;53.746;10.058;2023-03-03T01:57:12;-0.65;95.98
67279;DHT22;54193;53.746;10.058;2023-03-03T02:00:02;-0.71;95.86
67279;DHT22;54193;53.746;10.058;2023-03-03T02:02:48;-0.62;95.95
67279;DHT22;54193;53.746;10.058;2023-03-03T02:05:34;-0.62;95.93
67279;DHT22;54193;53.746;10.058;2023-03-03T02:08:25;-0.72;95.91
67279;DHT22;54193;53.746;10.058;2023-03-03T02:11:13;-0.78;95.89
67279;DHT22;54193;53.746;10.058;2023-03-03T02:13:59;-0.68;95.97
67279;DHT22;54193;53.746;10.058;2023-03-03T02:16:45;-0.73;95.94
67279;DHT22;54193;53.746;10.058;2023-03-03T02:19:49;-0.75;95.92
67279;DHT22;54193;53.746;10.058;2023-03-03T02:22:43;-0.72;95.90
67279;DHT22;54193;53.746;10.058;2023-03-03T02:25:50;-0.82;95.78
67279;DHT22;54193;53.746;10.058;2023-03-03T02:28:39;-0.79;95.83
67279;DHT22;54193;53.746;10.058;2023-03-03T02:31:28;-0.83;95.84
67279;DHT22;54193;53.746;10.058;2023-03-03T02:34:14;-0.88;95.83
67279;DHT22;54193;53.746;10.058;2023-03-03T02:37:02;-0.82;95.88
67279;DHT22;54193;53.746;10.058;2023-03-03T02:39:48;-0.79;95.87
67279;DHT22;54193;53.746;10.058;2023-03-03T02:42:33;-0.95;95.74
67279;DHT22;54193;53.746;10.058;2023-03-03T02:45:19;-0.86;95.83
67279;DHT22;54193;53.746;10.058;2023-03-03T02:48:05;-0.85;95.84
67279;DHT22;54193;53.746;10.058;2023-03-03T02:50:50;-0.75;95.86
67279;DHT22;54193;53.746;10.058;2023-03-03T02:53:36;-0.78;95.82
67279;DHT22;54193;53.746;10.058;2023-03-03T02:56:22;-0.82;95.79
67279;DHT22;54193;53.746;10.058;2023-03-03T02:59:08;-0.86;95.82
67279;DHT22;54193;53.746;10.058;2023-03-03T03:01:54;-0.96;95.80
67279;DHT22;54193;53.746;10.058;2023-03-03T03:04:41;-0.86;95.88
67279;DHT22;54193;53.746;10.058;2023-03-03T03:07:26;-0.86;95.81
67279;DHT22;54193;53.746;10.058;2023-03-03T03:10:12;-0.92;95.73
67279;DHT22;54193;53.746;10.058;2023-03-03T03:12:58;-0.93;95.62
67279;DHT22;54193;53.746;10.058;2023-03-03T03:15:46;-0.95;95.67
67279;DHT22;54193;53.746;10.058;2023-03-03T03:18:32;-0.99;95.70
67279;DHT22;54193;53.746;10.058;2023-03-03T03:21:18;-1.11;95.61
67279;DHT22;54193;53.746;10.058;2023-03-03T03:24:04;-0.99;95.78
67279;DHT22;54193;53.746;10.058;2023-03-03T03:26:49;-1.03;95.82
67279;DHT22;54193;53.746;10.058;2023-03-03T03:29:35;-1.06;95.82
67279;DHT22;54193;53.746;10.058;2023-03-03T03:32:21;-1.07;95.80
67279;DHT22;54193;53.746;10.058;2023-03-03T03:35:07;-1.03;95.76
67279;DHT22;54193;53.746;10.058;2023-03-03T03:37:53;-1.00;95.79
67279;DHT22;54193;53.746;10.058;2023-03-03T03:40:39;-1.09;95.76
67279;DHT22;54193;53.746;10.058;2023-03-03T03:43:25;-0.99;95.83
67279;DHT22;54193;53.746;10.058;2023-03-03T03:46:11;-0.99;95.77
67279;DHT22;54193;53.746;10.058;2023-03-03T03:48:57;-0.96;95.85
67279;DHT22;54193;53.746;10.058;2023-03-03T03:51:43;-1.02;95.86
67279;DHT22;54193;53.746;10.058;2023-03-03T03:54:28;-0.95;95.85
67279;DHT22;54193;53.746;10.058;2023-03-03T03:57:15;-0.95;95.81
67279;DHT22;54193;53.746;10.058;2023-03-03T04:00:00;-0.88;95.82
67279;DHT22;54193;53.746;10.058;2023-03-03T04:02:46;-0.83;95.89
67279;DHT22;54193;53.746;10.058;2023-03-03T04:05:32;-0.88;95.83
67279;DHT22;54193;53.746;10.058;2023-03-03T04:08:17;-0.92;95.80
67279;DHT22;54193;53.746;10.058;2023-03-03T04:11:03;-0.96;95.84
67279;DHT22;54193;53.746;10.058;2023-03-03T04:13:49;-0.96;95.88
67279;DHT22;54193;53.746;10.058;2023-03-03T04:16:34;-0.99;95.94
67279;DHT22;54193;53.746;10.058;2023-03-03T04:19:20;-0.86;95.90
67279;DHT22;54193;53.746;10.058;2023-03-03T04:22:06;-0.79;95.89
67279;DHT22;54193;53.746;10.058;2023-03-03T04:24:52;-0.86;95.89
67279;DHT22;54193;53.746;10.058;2023-03-03T04:27:38;-0.86;95.84
67279;DHT22;54193;53.746;10.058;2023-03-03T04:30:23;-0.91;95.87
67279;DHT22;54193;53.746;10.058;2023-03-03T04:33:09;-0.93;95.88
67279;DHT22;54193;53.746;10.058;2023-03-03T04:35:54;-0.88;95.83
67279;DHT22;54193;53.746;10.058;2023-03-03T04:38:40;-0.91;95.83
67279;DHT22;54193;53.746;10.058;2023-03-03T04:41:26;-0.88;95.85
67279;DHT22;54193;53.746;10.058;2023-03-03T04:44:12;-0.89;95.79
67279;DHT22;54193;53.746;10.058;2023-03-03T04:46:57;-0.99;95.82
67279;DHT22;54193;53.746;10.058;2023-03-03T04:49:43;-0.89;95.87
67279;DHT22;54193;53.746;10.058;2023-03-03T04:52:29;-0.99;95.84
67279;DHT22;54193;53.746;10.058;2023-03-03T04:55:14;-0.95;95.92
67279;DHT22;54193;53.746;10.058;2023-03-03T04:58:01;-0.96;95.96
67279;DHT22;54193;53.746;10.058;2023-03-03T05:00:52;-0.89;95.92
67279;DHT22;54193;53.746;10.058;2023-03-03T05:03:39;-0.81;95.93
67279;DHT22;54193;53.746;10.058;2023-03-03T05:06:25;-0.86;95.86
67279;DHT22;54193;53.746;10.058;2023-03-03T05:09:10;-0.92;95.77
67279;DHT22;54193;53.746;10.058;2023-03-03T05:11:56;-1.02;95.79
67279;DHT22;54193;53.746;10.058;2023-03-03T05:14:42;-1.00;95.89
67279;DHT22;54193;53.746;10.058;2023-03-03T05:17:27;-0.88;95.93
67279;DHT22;54193;53.746;10.058;2023-03-03T05:20:13;-0.91;95.91
67279;DHT22;54193;53.746;10.058;2023-03-03T05:22:59;-0.83;95.89
67279;DHT22;54193;53.746;10.058;2023-03-03T05:25:47;-0.88;95.88
67279;DHT22;54193;53.746;10.058;2023-03-03T05:28:32;-0.83;95.83
67279;DHT22;54193;53.746;10.058;2023-03-03T05:31:19;-0.89;95.79
67279;DHT22;54193;53.746;10.058;2023-03-03T05:34:05;-1.07;95.80
67279;DHT22;54193;53.746;10.058;2023-03-03T05:36:51;-1.03;96.01
67279;DHT22;54193;53.746;10.058;2023-03-03T05:39:36;-0.93;95.95
67279;DHT22;54193;53.746;10.058;2023-03-03T05:42:22;-0.91;95.97
67279;DHT22;54193;53.746;10.058;2023-03-03T05:45:08;-0.89;95.96
67279;DHT22;54193;53.746;10.058;2023-03-03T05:47:54;-0.93;95.90
67279;DHT22;54193;53.746;10.058;2023-03-03T05:50:40;-0.99;95.92
67279;DHT22;54193;53.746;10.058;2023-03-03T05:53:26;-0.95;95.86
67279;DHT22;54193;53.746;10.058;2023-03-03T05:56:12;-0.93;95.86
67279;DHT22;54193;53.746;10.058;2023-03-03T05:58:58;-1.17;95.80
67279;DHT22;54193;53.746;10.058;2023-03-03T06:01:43;-1.10;95.91
67279;DHT22;54193;53.746;10.058;2023-03-03T06:04:30;-1.00;95.94
67279;DHT22;54193;53.746;10.058;2023-03-03T06:07:16;-1.06;95.87
67279;DHT22;54193;53.746;10.058;2023-03-03T06:10:02;-1.07;95.88
67279;DHT22;54193;53.746;10.058;2023-03-03T06:12:48;-1.09;95.97
67279;DHT22;54193;53.746;10.058;2023-03-03T06:15:34;-1.07;95.94
67279;DHT22;54193;53.746;10.058;2023-03-03T06:18:19;-1.19;95.80
67279;DHT22;54193;53.746;10.058;2023-03-03T06:21:05;-1.09;95.93
67279;DHT22;54193;53.746;10.058;2023-03-03T06:23:51;-1.20;95.86
67279;DHT22;54193;53.746;10.058;2023-03-03T06:26:36;-1.02;95.98
67279;DHT22;54193;53.746;10.058;2023-03-03T06:29:22;-1.30;96.01
67279;DHT22;54193;53.746;10.058;2023-03-03T06:32:08;-1.06;96.16
67279;DHT22;54193;53.746;10.058;2023-03-03T06:34:53;-0.99;96.09
67279;DHT22;54193;53.746;10.058;2023-03-03T06:37:39;-0.99;96.02
67279;DHT22;54193;53.746;10.058;2023-03-03T06:40:25;-0.96;95.95
67279;DHT22;54193;53.746;10.058;2023-03-03T06:43:10;-0.93;96.03
67279;DHT22;54193;53.746;10.058;2023-03-03T06:45:56;-0.85;96.05
67279;DHT22;54193;53.746;10.058;2023-03-03T06:48:42;-0.75;95.98
67279;DHT22;54193;53.746;10.058;2023-03-03T06:51:33;-0.71;95.95
67279;DHT22;54193;53.746;10.058;2023-03-03T06:54:25;-0.69;95.96
67279;DHT22;54193;53.746;10.058;2023-03-03T06:57:37;-0.66;95.95
67279;DHT22;54193;53.746;10.058;2023-03-03T07:00:26;-0.68;95.91
67279;DHT22;54193;53.746;10.058;2023-03-03T07:03:15;-0.55;95.91
67279;DHT22;54193;53.746;10.058;2023-03-03T07:06:07;-0.58;95.94
67279;DHT22;54193;53.746;10.058;2023-03-03T07:08:57;-0.50;95.91
67279;DHT22;54193;53.746;10.058;2023-03-03T07:11:43;-0.55;95.89
67279;DHT22;54193;53.746;10.058;2023-03-03T07:14:29;-0.55;95.91
67279;DHT22;54193;53.746;10.058;2023-03-03T07:17:17;-0.51;95.79
67279;DHT22;54193;53.746;10.058;2023-03-03T07:20:17;-0.38;95.89
67279;DHT22;54193;53.746;10.058;2023-03-03T07:23:21;-0.30;95.79
67279;DHT22;54193;53.746;10.058;2023-03-03T07:26:14;-0.21;95.91
67279;DHT22;54193;53.746;10.058;2023-03-03T07:29:24;-0.18;95.91
67279;DHT22;54193;53.746;10.058;2023-03-03T07:32:38;-0.18;95.78
67279;DHT22;54193;53.746;10.058;2023-03-03T07:35:42;-0.06;95.91
67279;DHT22;54193;53.746;10.058;2023-03-03T07:38:40;-0.06;95.84
67279;DHT22;54193;53.746;10.058;2023-03-03T07:41:27;0.00;95.83
67279;DHT22;54193;53.746;10.058;2023-03-03T07:44:34;0.10;95.85
67279;DHT22;54193;53.746;10.058;2023-03-03T07:47:22;0.03;95.76
67279;DHT22;54193;53.746;10.058;2023-03-03T07:50:18;0.01;95.73
67279;DHT22;54193;53.746;10.058;2023-03-03T07:53:13;0.14;95.73
67279;DHT22;54193;53.746;10.058;2023-03-03T07:56:00;0.24;95.76
67279;DHT22;54193;53.746;10.058;2023-03-03T07:58:46;0.28;95.80
67279;DHT22;54193;53.746;10.058;2023-03-03T08:01:40;0.29;95.78
67279;DHT22;54193;53.746;10.058;2023-03-03T08:04:38;0.26;95.72
67279;DHT22;54193;53.746;10.058;2023-03-03T08:07:25;0.39;95.81
67279;DHT22;54193;53.746;10.058;2023-03-03T08:10:46;0.46;95.76
67279;DHT22;54193;53.746;10.058;2023-03-03T08:13:37;0.60;95.78
67279;DHT22;54193;53.746;10.058;2023-03-03T08:16:33;0.66;95.74
67279;DHT22;54193;53.746;10.058;2023-03-03T08:19:20;0.69;95.75
67279;DHT22;54193;53.746;10.058;2023-03-03T08:22:15;0.84;95.80
67279;DHT22;54193;53.746;10.058;2023-03-03T08:25:02;0.93;95.74
67279;DHT22;54193;53.746;10.058;2023-03-03T08:27:47;1.00;95.71
67279;DHT22;54193;53.746;10.058;2023-03-03T08:30:33;1.18;95.68
67279;DHT22;54193;53.746;10.058;2023-03-03T08:33:19;1.25;95.58
67279;DHT22;54193;53.746;10.058;2023-03-03T08:36:06;1.31;95.49
67279;DHT22;54193;53.746;10.058;2023-03-03T08:38:51;1.35;95.18
67279;DHT22;54193;53.746;10.058;2023-03-03T08:41:37;1.43;95.28
67279;DHT22;54193;53.746;10.058;2023-03-03T08:44:25;1.43;95.35
67279;DHT22;54193;53.746;10.058;2023-03-03T08:47:10;1.49;95.33
67279;DHT22;54193;53.746;10.058;2023-03-03T08:49:56;1.43;95.15
67279;DHT22;54193;53.746;10.058;2023-03-03T08:52:42;1.52;95.23
67279;DHT22;54193;53.746;10.058;2023-03-03T08:55:28;1.46;95.18
67279;DHT22;54193;53.746;10.058;2023-03-03T08:58:14;1.59;95.24
67279;DHT22;54193;53.746;10.058;2023-03-03T09:01:00;1.67;95.21
67279;DHT22;54193;53.746;10.058;2023-03-03T09:03:46;1.59;95.22
67279;DHT22;54193;53.746;10.058;2023-03-03T09:06:32;1.96;95.30
67279;DHT22;54193;53.746;10.058;2023-03-03T09:09:17;1.97;94.97
67279;DHT22;54193;53.746;10.058;2023-03-03T09:12:16;2.10;94.92
67279;DHT22;54193;53.746;10.058;2023-03-03T09:15:18;2.03;94.66
67279;DHT22;54193;53.746;10.058;2023-03-03T09:18:36;2.04;94.68
67279;DHT22;54193;53.746;10.058;2023-03-03T09:21:26;2.03;94.79
67279;DHT22;54193;53.746;10.058;2023-03-03T09:24:28;2.17;94.67
67279;DHT22;54193;53.746;10.058;2023-03-03T09:27:24;2.29;94.74
67279;DHT22;54193;53.746;10.058;2023-03-03T09:36:29;2.45;94.53
67279;DHT22;54193;53.746;10.058;2023-03-03T09:39:23;2.55;94.40
67279;DHT22;54193;53.746;10.058;2023-03-03T09:42:28;2.42;94.19
67279;DHT22;54193;53.746;10.058;2023-03-03T09:45:30;2.57;94.18
67279;DHT22;54193;53.746;10.058;2023-03-03T09:48:35;2.73;94.03
67279;DHT22;54193;53.746;10.058;2023-03-03T09:55:00;2.83;93.45
67279;DHT22;54193;53.746;10.058;2023-03-03T10:16:16;3.70;91.77
67279;DHT22;54193;53.746;10.058;2023-03-03T10:19:19;3.52;91.90
67279;DHT22;54193;53.746;10.058;2023-03-03T10:25:39;4.00;91.36
67279;DHT22;54193;53.746;10.058;2023-03-03T10:37:38;4.08;90.72
67279;DHT22;54193;53.746;10.058;2023-03-03T10:43:59;3.82;91.39
67279;DHT22;54193;53.746;10.058;2023-03-03T10:55:44;3.91;91.12
67279;DHT22;54193;53.746;10.058;2023-03-03T11:04:44;4.04;91.24
67279;DHT22;54193;53.746;10.058;2023-03-03T11:07:43;4.10;91.25
67279;DHT22;54193;53.746;10.058;2023-03-03T11:13:40;4.20;90.91
67279;DHT22;54193;53.746;10.058;2023-03-03T11:22:53;4.49;90.40
67279;DHT22;54193;53.746;10.058;2023-03-03T11:25:49;4.61;90.43
67279;DHT22;54193;53.746;10.058;2023-03-03T11:29:12;4.73;89.89
67279;DHT22;54193;53.746;10.058;2023-03-03T11:32:35;4.84;89.32
67279;DHT22;54193;53.746;10.058;2023-03-03T11:35:35;4.94;89.32
67279;DHT22;54193;53.746;10.058;2023-03-03T11:41:48;5.07;88.87
67279;DHT22;54193;53.746;10.058;2023-03-03T11:44:46;5.04;89.23
67279;DHT22;54193;53.746;10.058;2023-03-03T11:47:42;5.17;89.19
67279;DHT22;54193;53.746;10.058;2023-03-03T11:50:40;5.03;88.87
67279;DHT22;54193;53.746;10.058;2023-03-03T11:53:53;4.99;89.02
67279;DHT22;54193;53.746;10.058;2023-03-03T11:56:44;5.06;88.73
67279;DHT22;54193;53.746;10.058;2023-03-03T11:59:39;5.21;88.68
67279;DHT22;54193;53.746;10.058;2023-03-03T12:02:54;5.20;88.62
67279;DHT22;54193;53.746;10.058;2023-03-03T12:06:05;5.35;88.33
67279;DHT22;54193;53.746;10.058;2023-03-03T12:15:05;5.39;87.98
67279;DHT22;54193;53.746;10.058;2023-03-03T12:24:22;5.73;87.34
67279;DHT22;54193;53.746;10.058;2023-03-03T12:27:37;6.04;86.90
67279;DHT22;54193;53.746;10.058;2023-03-03T12:30:56;6.02;86.34
67279;DHT22;54193;53.746;10.058;2023-03-03T12:33:56;6.09;86.29
67279;DHT22;54193;53.746;10.058;2023-03-03T12:48:30;6.03;85.96
67279;DHT22;54193;53.746;10.058;2023-03-03T12:55:04;5.89;85.64
67279;DHT22;54193;53.746;10.058;2023-03-03T13:01:01;5.94;85.65
67279;DHT22;54193;53.746;10.058;2023-03-03T13:06:51;5.90;85.85
67279;DHT22;54193;53.746;10.058;2023-03-03T13:09:56;5.86;85.81
67279;DHT22;54193;53.746;10.058;2023-03-03T13:13:16;5.90;86.28
67279;DHT22;54193;53.746;10.058;2023-03-03T13:16:10;6.02;85.78
67279;DHT22;54193;53.746;10.058;2023-03-03T13:19:08;6.13;85.48
67279;DHT22;54193;53.746;10.058;2023-03-03T13:22:08;6.04;84.06
67279;DHT22;54193;53.746;10.058;2023-03-03T13:28:20;6.03;83.97
67279;DHT22;54193;53.746;10.058;2023-03-03T13:31:17;6.16;82.04
67279;DHT22;54193;53.746;10.058;2023-03-03T13:34:07;6.21;81.77
67279;DHT22;54193;53.746;10.058;2023-03-03T13:37:21;6.10;80.45
67279;DHT22;54193;53.746;10.058;2023-03-03T13:43:11;6.07;79.08
67279;DHT22;54193;53.746;10.058;2023-03-03T13:46:11;6.21;79.87
67279;DHT22;54193;53.746;10.058;2023-03-03T13:52:02;6.30;79.73
67279;DHT22;54193;53.746;10.058;2023-03-03T13:58:19;6.28;78.74
67279;DHT22;54193;53.746;10.058;2023-03-03T14:01:22;6.27;78.58
67279;DHT22;54193;53.746;10.058;2023-03-03T14:07:42;6.25;78.51
67279;DHT22;54193;53.746;10.058;2023-03-03T14:13:33;6.21;78.74
67279;DHT22;54193;53.746;10.058;2023-03-03T14:19:50;6.03;78.39
67279;DHT22;54193;53.746;10.058;2023-03-03T14:22:53;6.03;79.29
67279;DHT22;54193;53.746;10.058;2023-03-03T14:28:49;5.99;79.76
67279;DHT22;54193;53.746;10.058;2023-03-03T14:31:41;6.07;80.23
67279;DHT22;54193;53.746;10.058;2023-03-03T14:37:23;5.89;80.01
67279;DHT22;54193;53.746;10.058;2023-03-03T14:43:18;5.86;79.60
67279;DHT22;54193;53.746;10.058;2023-03-03T14:49:28;5.90;78.82
67279;DHT22;54193;53.746;10.058;2023-03-03T14:52:19;5.90;79.09
67279;DHT22;54193;53.746;10.058;2023-03-03T14:55:30;5.99;79.26
67279;DHT22;54193;53.746;10.058;2023-03-03T14:58:26;6.04;79.93
67279;DHT22;54193;53.746;10.058;2023-03-03T15:07:35;5.86;80.50
67279;DHT22;54193;53.746;10.058;2023-03-03T15:13:33;5.86;80.50
67279;DHT22;54193;53.746;10.058;2023-03-03T15:16:24;5.94;80.70
67279;DHT22;54193;53.746;10.058;2023-03-03T15:31:12;5.66;79.63
67279;DHT22;54193;53.746;10.058;2023-03-03T15:37:36;5.59;79.17
67279;DHT22;54193;53.746;10.058;2023-03-03T15:40:48;5.59;79.44
67279;DHT22;54193;53.746;10.058;2023-03-03T15:43:51;5.60;80.30
67279;DHT22;54193;53.746;10.058;2023-03-03T15:46:51;5.63;80.40
67279;DHT22;54193;53.746;10.058;2023-03-03T16:02:15;5.48;81.87
67279;DHT22;54193;53.746;10.058;2023-03-03T16:05:22;5.41;82.08
67279;DHT22;54193;53.746;10.058;2023-03-03T16:08:21;5.38;81.90
67279;DHT22;54193;53.746;10.058;2023-03-03T16:11:16;5.34;81.89
67279;DHT22;54193;53.746;10.058;2023-03-03T16:14:48;5.35;82.12
67279;DHT22;54193;53.746;10.058;2023-03-03T16:18:06;5.26;81.65
67279;DHT22;54193;53.746;10.058;2023-03-03T16:24:39;5.06;81.43
67279;DHT22;54193;53.746;10.058;2023-03-03T16:30:48;5.10;81.78
67279;DHT22;54193;53.746;10.058;2023-03-03T16:33:42;5.07;82.32
67279;DHT22;54193;53.746;10.058;2023-03-03T16:39:46;5.07;82.51
67279;DHT22;54193;53.746;10.058;2023-03-03T16:42:35;5.10;82.67
67279;DHT22;54193;53.746;10.058;2023-03-03T16:45:23;5.09;82.67
67279;DHT22;54193;53.746;10.058;2023-03-03T16:51:24;5.06;82.69
67279;DHT22;54193;53.746;10.058;2023-03-03T16:57:39;5.00;82.93
67279;DHT22;54193;53.746;10.058;2023-03-03T17:00:41;4.97;82.96
67279;DHT22;54193;53.746;10.058;2023-03-03T17:03:59;5.00;83.29
67279;DHT22;54193;53.746;10.058;2023-03-03T17:06:53;5.04;83.31
67279;DHT22;54193;53.746;10.058;2023-03-03T17:19:24;4.89;83.60
67279;DHT22;54193;53.746;10.058;2023-03-03T17:25:21;4.73;84.15
67279;DHT22;54193;53.746;10.058;2023-03-03T17:28:26;4.76;83.82
67279;DHT22;54193;53.746;10.058;2023-03-03T17:35:11;4.69;84.25
67279;DHT22;54193;53.746;10.058;2023-03-03T17:38:21;4.71;84.66
67279;DHT22;54193;53.746;10.058;2023-03-03T17:41:23;4.71;84.72
67279;DHT22;54193;53.746;10.058;2023-03-03T17:44:32;4.72;84.59
67279;DHT22;54193;53.746;10.058;2023-03-03T17:54:06;4.71;84.98
67279;DHT22;54193;53.746;10.058;2023-03-03T18:21:27;4.38;85.90
67279;DHT22;54193;53.746;10.058;2023-03-03T18:24:38;4.30;86.01
67279;DHT22;54193;53.746;10.058;2023-03-03T18:30:56;4.15;86.70
67279;DHT22;54193;53.746;10.058;2023-03-03T18:33:43;4.15;86.67
67279;DHT22;54193;53.746;10.058;2023-03-03T18:37:00;4.08;86.78
67279;DHT22;54193;53.746;10.058;2023-03-03T18:42:54;4.06;87.13
67279;DHT22;54193;53.746;10.058;2023-03-03T18:48:58;4.07;87.26
67279;DHT22;54193;53.746;10.058;2023-03-03T18:54:31;4.10;87.21
67279;DHT22;54193;53.746;10.058;2023-03-03T18:57:18;4.03;87.46
67279;DHT22;54193;53.746;10.058;2023-03-03T19:00:15;4.04;87.55
67279;DHT22;54193;53.746;10.058;2023-03-03T19:03:24;4.06;87.52
67279;DHT22;54193;53.746;10.058;2023-03-03T19:06:10;3.94;87.71
67279;DHT22;54193;53.746;10.058;2023-03-03T19:08:57;3.89;87.99
67279;DHT22;54193;53.746;10.058;2023-03-03T19:11:49;3.83;87.95
67279;DHT22;54193;53.746;10.058;2023-03-03T19:14:43;3.70;88.26
67279;DHT22;54193;53.746;10.058;2023-03-03T19:20:24;3.55;88.93
67279;DHT22;54193;53.746;10.058;2023-03-03T19:23:15;3.51;89.11
67279;DHT22;54193;53.746;10.058;2023-03-03T19:35:42;3.39;89.44
67279;DHT22;54193;53.746;10.058;2023-03-03T19:38:45;3.32;89.58
67279;DHT22;54193;53.746;10.058;2023-03-03T19:44:51;3.31;89.75
67279;DHT22;54193;53.746;10.058;2023-03-03T19:57:33;3.65;89.61
67279;DHT22;54193;53.746;10.058;2023-03-03T20:06:49;3.82;89.45
67279;DHT22;54193;53.746;10.058;2023-03-03T20:15:23;3.94;89.61
67279;DHT22;54193;53.746;10.058;2023-03-03T20:21:31;4.00;89.74
67279;DHT22;54193;53.746;10.058;2023-03-03T20:27:39;4.06;89.73
67279;DHT22;54193;53.746;10.058;2023-03-03T20:34:16;4.11;89.71
67279;DHT22;54193;53.746;10.058;2023-03-03T20:37:09;4.14;89.64
67279;DHT22;54193;53.746;10.058;2023-03-03T20:43:07;4.13;89.74
67279;DHT22;54193;53.746;10.058;2023-03-03T20:46:14;4.21;89.64
67279;DHT22;54193;53.746;10.058;2023-03-03T20:49:16;4.24;89.57
67279;DHT22;54193;53.746;10.058;2023-03-03T20:56:02;4.34;89.44
67279;DHT22;54193;53.746;10.058;2023-03-03T21:01:52;4.48;89.12
67279;DHT22;54193;53.746;10.058;2023-03-03T21:04:41;4.53;88.99
67279;DHT22;54193;53.746;10.058;2023-03-03T21:07:27;4.61;88.92
67279;DHT22;54193;53.746;10.058;2023-03-03T21:10:15;4.62;88.99
67279;DHT22;54193;53.746;10.058;2023-03-03T21:13:25;4.62;89.09
67279;DHT22;54193;53.746;10.058;2023-03-03T21:19:22;4.65;89.12
67279;DHT22;54193;53.746;10.058;2023-03-03T21:22:09;4.68;89.13
67279;DHT22;54193;53.746;10.058;2023-03-03T21:24:56;4.69;89.17
67279;DHT22;54193;53.746;10.058;2023-03-03T21:27:43;4.75;89.17
67279;DHT22;54193;53.746;10.058;2023-03-03T21:30:29;4.73;89.18
67279;DHT22;54193;53.746;10.058;2023-03-03T21:42:14;4.71;89.55
67279;DHT22;54193;53.746;10.058;2023-03-03T21:45:08;4.69;89.53
67279;DHT22;54193;53.746;10.058;2023-03-03T21:47:55;4.69;89.55
67279;DHT22;54193;53.746;10.058;2023-03-03T21:50:42;4.72;89.56
67279;DHT22;54193;53.746;10.058;2023-03-03T21:53:30;4.68;89.51
67279;DHT22;54193;53.746;10.058;2023-03-03T21:56:16;4.73;89.43
67279;DHT22;54193;53.746;10.058;2023-03-03T21:59:02;4.75;89.49
67279;DHT22;54193;53.746;10.058;2023-03-03T22:01:47;4.71;89.47
67279;DHT22;54193;53.746;10.058;2023-03-03T22:04:34;4.73;89.52
67279;DHT22;54193;53.746;10.058;2023-03-03T22:07:19;4.76;89.28
67279;DHT22;54193;53.746;10.058;2023-03-03T22:10:05;4.80;89.09
67279;DHT22;54193;53.746;10.058;2023-03-03T22:12:52;4.83;89.01
67279;DHT22;54193;53.746;10.058;2023-03-03T22:15:37;4.83;88.99
67279;DHT22;54193;53.746;10.058;2023-03-03T22:18:23;4.86;88.83
67279;DHT22;54193;53.746;10.058;2023-03-03T22:21:08;4.84;88.78
67279;DHT22;54193;53.746;10.058;2023-03-03T22:23:54;4.87;88.81
67279;DHT22;54193;53.746;10.058;2023-03-03T22:26:40;4.87;88.78
67279;DHT22;54193;53.746;10.058;2023-03-03T22:29:25;4.84;88.74
67279;DHT22;54193;53.746;10.058;2023-03-03T22:32:11;4.90;88.65
67279;DHT22;54193;53.746;10.058;2023-03-03T22:34:57;4.92;88.63
67279;DHT22;54193;53.746;10.058;2023-03-03T22:37:42;4.90;88.47
67279;DHT22;54193;53.746;10.058;2023-03-03T22:40:28;4.96;88.59
67279;DHT22;54193;53.746;10.058;2023-03-03T22:43:14;4.94;88.44
67279;DHT22;54193;53.746;10.058;2023-03-03T22:46:00;4.97;88.44
67279;DHT22;54193;53.746;10.058;2023-03-03T22:48:46;4.99;88.21
67279;DHT22;54193;53.746;10.058;2023-03-03T22:51:31;5.00;88.38
67279;DHT22;54193;53.746;10.058;2023-03-03T22:54:17;5.04;88.22
67279;DHT22;54193;53.746;10.058;2023-03-03T22:57:02;5.07;88.05
67279;DHT22;54193;53.746;10.058;2023-03-03T22:59:48;5.07;88.16
67279;DHT22;54193;53.746;10.058;2023-03-03T23:02:34;5.07;88.22
67279;DHT22;54193;53.746;10.058;2023-03-03T23:05:19;5.04;88.21
67279;DHT22;54193;53.746;10.058;2023-03-03T23:08:07;5.07;88.32
67279;DHT22;54193;53.746;10.058;2023-03-03T23:10:53;5.09;88.36
67279;DHT22;54193;53.746;10.058;2023-03-03T23:13:39;5.10;88.11
67279;DHT22;54193;53.746;10.058;2023-03-03T23:16:24;5.09;88.33
67279;DHT22;54193;53.746;10.058;2023-03-03T23:19:10;5.09;88.30
67279;DHT22;54193;53.746;10.058;2023-03-03T23:21:56;5.10;88.24
67279;DHT22;54193;53.746;10.058;2023-03-03T23:24:42;5.11;88.10
67279;DHT22;54193;53.746;10.058;2023-03-03T23:27:27;5.10;88.06
67279;DHT22;54193;53.746;10.058;2023-03-03T23:30:14;5.13;87.93
67279;DHT22;54193;53.746;10.058;2023-03-03T23:33:00;5.14;87.63
67279;DHT22;54193;53.746;10.058;2023-03-03T23:35:46;5.16;87.36